Time;durP1;ratioP1;P1;durP2;ratioP2;P2;SDS_P1;SDS_P2;PMS_P1;PMS_P2;Temp;Humidity;BMP_temperature;BMP_pressure;BME280_temperature;BME280_humidity;BME280_pressure;Samples;Min_cycle;Max_cycle;Signal;HPM_P1;HPM_P2
2023/12/08 00:00:35;;;;;;;1.20;0.43;;;;;;;;;;4838417;29;20508;-73
2023/12/08 00:03:03;;;;;;;0.70;0.40;;;2.80;99.90;;;;;;4846462;29;20508;-73
2023/12/08 00:05:31;;;;;;;1.67;1.03;;;2.90;99.90;;;;;;4846823;29;20451;-71
2023/12/08 00:08:01;;;;;;;2.00;1.13;;;2.80;99.90;;;;;;4856829;29;20476;-74
2023/12/08 00:10:30;;;;;;;2.80;2.70;;;;;;;;;;4858638;29;20456;-73
2023/12/08 00:12:57;;;;;;;1.67;1.10;;;2.80;99.90;;;;;;4851695;29;20998;-73
2023/12/08 00:15:25;;;;;;;0.60;0.10;;;2.70;99.90;;;;;;4849238;29;20458;-72
2023/12/08 00:17:53;;;;;;;0.60;0.30;;;2.80;99.90;;;;;;4847297;29;20486;-73
2023/12/08 00:20:21;;;;;;;0.60;0.10;;;2.90;99.90;;;;;;4847430;29;20448;-72
2023/12/08 00:22:50;;;;;;;0.70;0.33;;;;;;;;;;4849470;29;20519;-72
2023/12/08 00:25:19;;;;;;;0.60;0.10;;;3.00;99.90;;;;;;4852955;29;20452;-76
2023/12/08 00:27:47;;;;;;;0.70;0.40;;;3.00;99.90;;;;;;4857021;29;20514;-71
2023/12/08 00:30:15;;;;;;;1.67;0.97;;;3.00;99.90;;;;;;4847219;29;20444;-72
2023/12/08 00:32:43;;;;;;;4.37;1.63;;;2.90;99.90;;;;;;4846189;29;20531;-72
2023/12/08 00:35:11;;;;;;;0.70;0.40;;;2.90;99.90;;;;;;4846783;29;20448;-73
2023/12/08 00:37:39;;;;;;;4.63;3.13;;;2.90;99.90;;;;;;4847253;29;20559;-73
2023/12/08 00:40:08;;;;;;;0.90;0.73;;;2.90;99.90;;;;;;4845736;29;20451;-73
2023/12/08 00:42:37;;;;;;;0.70;0.60;;;2.90;99.90;;;;;;4845780;29;20538;-73
2023/12/08 00:45:05;;;;;;;5.60;1.70;;;2.80;99.90;;;;;;4845704;29;20535;-72
2023/12/08 00:47:33;;;;;;;4.17;1.80;;;2.70;99.90;;;;;;4846230;29;20472;-72
2023/12/08 00:50:02;;;;;;;0.60;0.10;;;;;;;;;;4847877;29;20472;-72
2023/12/08 00:52:30;;;;;;;1.73;1.60;;;2.80;99.90;;;;;;4847271;29;20452;-72
2023/12/08 00:54:58;;;;;;;0.80;0.70;;;2.80;99.90;;;;;;4841801;29;20497;-72
2023/12/08 00:57:25;;;;;;;5.43;3.73;;;2.80;99.90;;;;;;4848693;29;20480;-72
2023/12/08 00:59:55;;;;;;;0.60;0.20;;;2.70;99.90;;;;;;4850079;29;20454;-72
2023/12/08 01:02:23;;;;;;;2.80;1.00;;;2.70;99.90;;;;;;4848200;29;20452;-74
2023/12/08 01:04:51;;;;;;;0.60;0.30;;;2.90;99.90;;;;;;4845442;29;20463;-74
2023/12/08 01:07:19;;;;;;;0.90;0.40;;;3.00;99.90;;;;;;4844681;29;20472;-71
2023/12/08 01:09:46;;;;;;;0.70;0.10;;;3.00;99.90;;;;;;4845365;29;20542;-72
2023/12/08 01:12:14;;;;;;;0.60;0.10;;;3.00;99.90;;;;;;4844843;29;21007;-72
2023/12/08 01:14:42;;;;;;;0.80;0.57;;;3.00;99.90;;;;;;4846097;29;20491;-73
2023/12/08 01:17:11;;;;;;;1.90;1.17;;;3.00;99.90;;;;;;4844927;29;20562;-72
2023/12/08 01:19:39;;;;;;;0.60;0.10;;;3.00;99.90;;;;;;4845091;29;20456;-73
2023/12/08 01:22:07;;;;;;;0.60;0.10;;;3.10;99.90;;;;;;4844440;29;20452;-72
2023/12/08 01:24:35;;;;;;;0.60;0.10;;;3.10;99.90;;;;;;4844424;29;20456;-74
2023/12/08 01:27:04;;;;;;;0.70;0.40;;;;;;;;;;4841724;29;20558;-72
2023/12/08 01:29:32;;;;;;;1.20;0.77;;;3.00;99.90;;;;;;4843059;29;20459;-73
2023/12/08 01:32:00;;;;;;;0.73;0.57;;;3.00;99.90;;;;;;4844855;29;20470;-73
2023/12/08 01:34:29;;;;;;;0.60;0.30;;;3.00;99.90;;;;;;4845376;29;20487;-72
2023/12/08 01:36:57;;;;;;;1.10;0.87;;;;;;;;;;4845190;29;20853;-73
2023/12/08 01:39:25;;;;;;;0.60;0.17;;;3.00;99.90;;;;;;4844644;29;20504;-73
2023/12/08 01:41:53;;;;;;;0.60;0.30;;;2.90;99.90;;;;;;4844961;29;20464;-72
2023/12/08 01:44:21;;;;;;;0.60;0.17;;;3.00;99.90;;;;;;4845152;29;20480;-73
2023/12/08 01:46:50;;;;;;;0.60;0.20;;;3.00;99.90;;;;;;4844117;29;20551;-73
2023/12/08 01:49:19;;;;;;;0.70;0.40;;;2.90;99.90;;;;;;4844052;29;20456;-72
2023/12/08 01:51:49;;;;;;;0.60;0.10;;;3.00;99.90;;;;;;4844480;29;20806;-73
2023/12/08 01:54:17;;;;;;;0.60;0.10;;;3.10;99.90;;;;;;4844211;29;20484;-72
2023/12/08 01:56:45;;;;;;;1.73;1.37;;;3.10;99.90;;;;;;4844195;29;20484;-73
2023/12/08 01:59:14;;;;;;;1.50;1.37;;;3.00;99.90;;;;;;4844096;29;20956;-73
2023/12/08 02:01:42;;;;;;;0.60;0.10;;;3.00;99.90;;;;;;4844327;29;20622;-75
2023/12/08 02:04:10;;;;;;;0.80;0.77;;;3.10;99.90;;;;;;4844457;29;20543;-71
2023/12/08 02:06:38;;;;;;;1.00;0.80;;;3.00;99.90;;;;;;4844033;29;20479;-72
2023/12/08 02:09:07;;;;;;;0.70;0.37;;;2.90;99.90;;;;;;4843250;29;20502;-72
2023/12/08 02:11:35;;;;;;;0.60;0.10;;;2.90;99.90;;;;;;4844882;29;20448;-71
2023/12/08 02:14:04;;;;;;;0.60;0.10;;;2.90;99.90;;;;;;4844975;29;20498;-71
2023/12/08 02:16:40;;;;;;;2.40;1.23;;;2.90;99.90;;;;;;4844669;29;20514;-72
2023/12/08 02:19:13;;;;;;;1.17;1.07;;;2.90;99.90;;;;;;4843522;29;20857;-74
2023/12/08 02:21:41;;;;;;;2.37;2.17;;;2.90;99.90;;;;;;4843183;29;21000;-72
2023/12/08 02:24:10;;;;;;;0.80;0.63;;;2.90;99.90;;;;;;4843087;29;20484;-73
2023/12/08 02:26:39;;;;;;;1.40;1.30;;;;;;;;;;4843144;29;21212;-72
2023/12/08 02:29:09;;;;;;;0.80;0.77;;;3.00;99.90;;;;;;4842776;29;20975;-73
2023/12/08 02:31:45;;;;;;;0.60;0.23;;;3.10;99.90;;;;;;4842994;29;20547;-73
2023/12/08 02:34:15;;;;;;;1.80;1.70;;;3.10;99.90;;;;;;4843158;29;20502;-71
2023/12/08 02:36:46;;;;;;;6.23;5.73;;;3.20;99.90;;;;;;4842835;29;20468;-73
2023/12/08 02:39:17;;;;;;;0.60;0.10;;;3.20;99.90;;;;;;4842457;29;20464;-72
2023/12/08 02:41:45;;;;;;;1.47;1.07;;;3.30;99.90;;;;;;4842363;29;20558;-73
2023/12/08 02:44:13;;;;;;;2.30;1.60;;;3.10;99.90;;;;;;4843002;29;20448;-74
2023/12/08 02:46:41;;;;;;;0.60;0.20;;;3.10;99.90;;;;;;4842936;29;20547;-74
2023/12/08 02:49:09;;;;;;;0.60;0.10;;;3.10;99.90;;;;;;4842627;29;20542;-73
2023/12/08 02:51:37;;;;;;;0.70;0.43;;;3.20;99.90;;;;;;4849067;29;20444;-73
2023/12/08 02:54:05;;;;;;;0.83;0.10;;;3.30;99.90;;;;;;4853347;29;20448;-74
2023/12/08 02:56:34;;;;;;;0.60;0.10;;;3.20;99.90;;;;;;4849660;29;20540;-74
2023/12/08 02:59:02;;;;;;;0.70;0.30;;;3.20;99.90;;;;;;4842929;29;20463;-72
2023/12/08 03:01:30;;;;;;;1.63;1.53;;;3.10;99.90;;;;;;4846086;29;20452;-72
2023/12/08 03:03:58;;;;;;;4.83;2.23;;;3.00;99.90;;;;;;4847773;29;20513;-72
2023/12/08 03:06:26;;;;;;;1.83;1.73;;;3.00;99.90;;;;;;4847757;29;20463;-72
2023/12/08 03:08:54;;;;;;;0.60;0.20;;;3.00;99.90;;;;;;4842651;29;20543;-73
2023/12/08 03:11:22;;;;;;;0.60;0.20;;;3.10;99.90;;;;;;4842141;29;20901;-74
2023/12/08 03:13:51;;;;;;;0.60;0.10;;;3.20;99.90;;;;;;4841998;29;20610;-73
2023/12/08 03:16:19;;;;;;;2.57;1.37;;;3.10;99.90;;;;;;4841967;29;20491;-73
2023/12/08 03:18:47;;;;;;;5.53;1.40;;;3.10;99.90;;;;;;4842532;29;20479;-72
2023/12/08 03:21:22;;;;;;;4.37;3.43;;;3.10;99.90;;;;;;4841856;29;20543;-72
2023/12/08 03:23:50;;;;;;;0.60;0.20;;;3.10;99.90;;;;;;4842131;29;20514;-73
2023/12/08 03:26:19;;;;;;;1.70;0.47;;;3.10;99.90;;;;;;4841044;29;20464;-72
2023/12/08 03:28:47;;;;;;;1.67;1.17;;;3.10;99.90;;;;;;4841481;29;20457;-72
2023/12/08 03:31:27;;;;;;;1.20;0.77;;;3.10;99.90;;;;;;4842051;29;20827;-71
2023/12/08 03:33:55;;;;;;;0.60;0.10;;;3.20;99.90;;;;;;4846838;29;20447;-72
2023/12/08 03:36:24;;;;;;;0.70;0.37;;;3.20;99.90;;;;;;4845445;29;20853;-72
2023/12/08 03:38:51;;;;;;;0.60;0.20;;;3.20;99.90;;;;;;4845268;29;20456;-72
2023/12/08 03:41:19;;;;;;;0.80;0.57;;;3.20;99.90;;;;;;4843856;29;20982;-72
2023/12/08 03:43:47;;;;;;;0.80;0.47;;;3.10;99.90;;;;;;4843391;29;20464;-73
2023/12/08 03:46:15;;;;;;;1.90;1.80;;;3.00;99.90;;;;;;4841761;29;20474;-72
2023/12/08 03:48:44;;;;;;;0.83;0.83;;;3.10;99.90;;;;;;4841311;29;20456;-71
2023/12/08 03:51:13;;;;;;;2.20;1.23;;;3.20;99.90;;;;;;4841612;29;20488;-72
2023/12/08 03:53:41;;;;;;;1.43;1.23;;;3.20;99.90;;;;;;4841868;29;20822;-72
2023/12/08 03:56:09;;;;;;;1.00;0.77;;;3.10;99.90;;;;;;4841372;29;21014;-72
2023/12/08 03:58:37;;;;;;;0.60;0.20;;;3.20;99.90;;;;;;4841625;29;20502;-72
2023/12/08 04:01:05;;;;;;;0.60;0.30;;;3.20;99.90;;;;;;4841522;29;20479;-72
2023/12/08 04:03:33;;;;;;;0.70;0.37;;;3.20;99.90;;;;;;4841608;29;20452;-72
2023/12/08 04:06:03;;;;;;;0.60;0.20;;;3.20;99.90;;;;;;4842062;29;21228;-72
2023/12/08 04:08:31;;;;;;;2.10;1.93;;;3.10;99.90;;;;;;4841676;29;20455;-73
2023/12/08 04:10:59;;;;;;;0.60;0.10;;;3.20;99.90;;;;;;4841382;29;20520;-72
2023/12/08 04:13:27;;;;;;;0.80;0.47;;;3.30;99.90;;;;;;4841769;29;20455;-74
2023/12/08 04:15:55;;;;;;;0.97;0.60;;;3.20;99.90;;;;;;4841909;29;20655;-75
2023/12/08 04:18:22;;;;;;;1.43;1.03;;;3.30;99.90;;;;;;4841267;29;20566;-72
2023/12/08 04:20:50;;;;;;;0.83;0.73;;;5.30;99.90;;;;;;4841791;29;20492;-72
2023/12/08 04:23:19;;;;;;;3.90;0.93;;;3.20;99.90;;;;;;4841536;29;20520;-72
2023/12/08 04:25:47;;;;;;;0.60;0.10;;;3.20;99.90;;;;;;4841428;29;20460;-72
2023/12/08 04:28:15;;;;;;;3.17;2.93;;;3.20;99.90;;;;;;4840816;29;20516;-73
2023/12/08 04:30:43;;;;;;;0.70;0.50;;;3.20;99.90;;;;;;4841084;29;20542;-72
2023/12/08 04:33:12;;;;;;;0.60;0.10;;;3.30;99.90;;;;;;4843778;29;20459;-72
2023/12/08 04:35:40;;;;;;;0.60;0.10;;;3.30;99.90;;;;;;4844984;29;20980;-71
2023/12/08 04:38:08;;;;;;;1.17;0.73;;;3.30;99.90;;;;;;4844865;29;20586;-72
2023/12/08 04:40:37;;;;;;;0.60;0.30;;;3.30;99.90;;;;;;4845063;29;20454;-72
2023/12/08 04:43:05;;;;;;;1.63;1.53;;;3.40;99.90;;;;;;4844278;29;20470;-74
2023/12/08 04:45:33;;;;;;;5.40;1.40;;;3.20;99.90;;;;;;4836940;29;20516;-74
2023/12/08 04:48:00;;;;;;;3.00;2.00;;;3.20;99.90;;;;;;4844670;29;20525;-74
2023/12/08 04:50:29;;;;;;;0.60;0.20;;;3.20;99.90;;;;;;4844916;29;20872;-74
2023/12/08 04:52:56;;;;;;;1.27;1.17;;;3.20;99.90;;;;;;4844504;29;20538;-74
2023/12/08 04:55:24;;;;;;;5.23;4.10;;;3.20;99.90;;;;;;4844348;29;20570;-74
2023/12/08 04:57:53;;;;;;;0.60;0.10;;;3.20;99.90;;;;;;4844325;29;20487;-75
2023/12/08 05:00:21;;;;;;;0.60;0.10;;;3.20;99.90;;;;;;4844836;29;20550;-74
2023/12/08 05:02:49;;;;;;;2.83;2.57;;;3.10;99.90;;;;;;4843682;29;20479;-75
2023/12/08 05:05:17;;;;;;;0.60;0.10;;;3.20;99.90;;;;;;4842669;29;20456;-74
2023/12/08 05:07:45;;;;;;;0.60;0.10;;;3.30;99.90;;;;;;4845223;29;20584;-73
2023/12/08 05:10:13;;;;;;;0.60;0.10;;;3.40;99.90;;;;;;4849012;29;20491;-74
2023/12/08 05:12:41;;;;;;;0.60;0.10;;;3.30;99.90;;;;;;4848883;29;20975;-74
2023/12/08 05:15:11;;;;;;;0.60;0.20;;;3.30;99.90;;;;;;4844526;29;20548;-74
2023/12/08 05:17:39;;;;;;;0.60;0.10;;;3.30;99.90;;;;;;4843628;29;20472;-74
2023/12/08 05:20:10;;;;;;;0.60;0.10;;;3.30;99.90;;;;;;4843986;29;20841;-74
2023/12/08 05:22:39;;;;;;;0.60;0.10;;;3.30;99.90;;;;;;4844192;29;20460;-74
2023/12/08 05:25:08;;;;;;;0.60;0.10;;;3.40;99.90;;;;;;4845043;29;20485;-74
2023/12/08 05:27:36;;;;;;;0.60;0.10;;;3.40;99.90;;;;;;4844884;29;20847;-73
2023/12/08 05:30:05;;;;;;;0.90;0.30;;;3.40;99.90;;;;;;4845524;29;20926;-73
2023/12/08 05:32:34;;;;;;;1.80;1.57;;;3.40;99.90;;;;;;4850157;29;20459;-73
2023/12/08 05:35:02;;;;;;;0.67;0.27;;;3.40;99.90;;;;;;4849356;29;20456;-73
2023/12/08 05:37:30;;;;;;;0.60;0.10;;;3.40;99.90;;;;;;4858760;29;20496;-72
2023/12/08 05:39:58;;;;;;;0.60;0.20;;;3.40;99.90;;;;;;4861244;29;20681;-73
2023/12/08 05:42:26;;;;;;;0.60;0.10;;;3.30;99.90;;;;;;4847362;29;20503;-74
2023/12/08 05:44:54;;;;;;;3.83;1.37;;;3.20;99.90;;;;;;4839305;29;20492;-74
2023/12/08 05:47:21;;;;;;;0.80;0.77;;;3.30;99.90;;;;;;4843562;29;20936;-76
2023/12/08 05:49:51;;;;;;;0.60;0.10;;;3.30;99.90;;;;;;4843466;29;20456;-75
2023/12/08 05:52:19;;;;;;;0.60;0.20;;;3.40;99.90;;;;;;4843524;29;20462;-74
2023/12/08 05:54:46;;;;;;;3.13;2.93;;;3.20;99.90;;;;;;4843149;29;20478;-76
2023/12/08 05:57:14;;;;;;;0.60;0.10;;;3.10;99.90;;;;;;4843595;29;20496;-74
2023/12/08 05:59:42;;;;;;;0.83;0.73;;;3.00;99.90;;;;;;4844828;29;20456;-74
2023/12/08 06:02:10;;;;;;;0.90;0.50;;;3.00;99.90;;;;;;4844260;29;20944;-75
2023/12/08 06:04:38;;;;;;;0.60;0.10;;;3.00;99.90;;;;;;4838753;29;20488;-75
2023/12/08 06:07:07;;;;;;;1.23;1.13;;;3.00;99.90;;;;;;4845621;29;20472;-74
2023/12/08 06:09:35;;;;;;;0.60;0.10;;;3.00;99.90;;;;;;4844353;29;20508;-74
2023/12/08 06:12:04;;;;;;;0.60;0.10;;;3.00;99.90;;;;;;4844020;29;20488;-74
2023/12/08 06:14:32;;;;;;;0.60;0.37;;;2.90;99.90;;;;;;4843752;29;20454;-75
2023/12/08 06:17:00;;;;;;;0.60;0.20;;;2.90;99.90;;;;;;4843474;29;20494;-75
2023/12/08 06:19:29;;;;;;;0.60;0.10;;;3.00;99.90;;;;;;4843206;29;20480;-75
2023/12/08 06:21:57;;;;;;;0.60;0.10;;;3.10;99.90;;;;;;4844378;29;20580;-74
2023/12/08 06:24:27;;;;;;;0.70;0.50;;;3.00;99.90;;;;;;4845159;29;20459;-74
2023/12/08 06:26:54;;;;;;;2.40;1.53;;;3.00;99.90;;;;;;4846386;29;20841;-74
2023/12/08 06:29:22;;;;;;;0.60;0.30;;;3.00;99.90;;;;;;4848101;29;20494;-75
2023/12/08 06:31:50;;;;;;;3.03;2.10;;;3.00;99.90;;;;;;4849705;29;20539;-76
2023/12/08 06:34:18;;;;;;;0.60;0.20;;;3.10;99.90;;;;;;4848410;29;20479;-75
2023/12/08 06:36:48;;;;;;;0.60;0.10;;;3.10;99.90;;;;;;4846344;29;20504;-76
2023/12/08 06:39:16;;;;;;;0.60;0.10;;;3.10;99.90;;;;;;4844557;29;20541;-74
2023/12/08 06:41:45;;;;;;;0.60;0.30;;;3.10;99.90;;;;;;4845755;29;20972;-75
2023/12/08 06:44:14;;;;;;;0.80;0.63;;;3.10;99.90;;;;;;4844825;29;21063;-74
2023/12/08 06:46:42;;;;;;;1.73;1.63;;;3.00;99.90;;;;;;4845093;29;20493;-74
2023/12/08 06:49:10;;;;;;;0.60;0.20;;;3.00;99.90;;;;;;4844586;29;20452;-74
2023/12/08 06:51:38;;;;;;;1.50;1.40;;;3.00;99.90;;;;;;4846938;29;20451;-75
2023/12/08 06:54:06;;;;;;;0.60;0.10;;;3.10;99.90;;;;;;4850267;29;20507;-74
2023/12/08 06:56:35;;;;;;;0.60;0.10;;;3.10;99.90;;;;;;4848636;29;20503;-74
2023/12/08 06:59:05;;;;;;;0.60;0.10;;;3.10;99.90;;;;;;4849659;29;20516;-74
2023/12/08 07:01:32;;;;;;;0.60;0.10;;;3.00;99.90;;;;;;4847533;29;20471;-75
2023/12/08 07:04:03;;;;;;;0.60;0.20;;;;;;;;;;4848848;29;20459;-74
2023/12/08 07:06:31;;;;;;;0.60;0.10;;;3.20;99.90;;;;;;4848792;29;20484;-74
2023/12/08 07:08:59;;;;;;;0.60;0.10;;;3.20;99.90;;;;;;4849189;29;20471;-75
2023/12/08 07:11:27;;;;;;;0.60;0.10;;;3.20;99.90;;;;;;4846697;29;20468;-76
2023/12/08 07:13:55;;;;;;;0.60;0.10;;;3.20;99.90;;;;;;4845595;29;20529;-74
2023/12/08 07:16:24;;;;;;;1.53;0.67;;;3.20;99.90;;;;;;4845003;29;20523;-74
2023/12/08 07:18:52;;;;;;;0.60;0.10;;;3.10;99.90;;;;;;4842270;29;21112;-75
2023/12/08 07:21:22;;;;;;;0.80;0.57;;;3.00;99.90;;;;;;4843641;29;20458;-75
2023/12/08 07:23:50;;;;;;;0.70;0.47;;;2.90;99.90;;;;;;4843613;29;20456;-75
2023/12/08 07:26:18;;;;;;;0.70;0.30;;;2.90;99.90;;;;;;4842929;29;20467;-75
2023/12/08 07:28:46;;;;;;;1.43;1.33;;;3.00;99.90;;;;;;4841943;29;20456;-74
2023/12/08 07:31:15;;;;;;;0.60;0.10;;;;;;;;;;4842609;29;20847;-73
2023/12/08 07:33:45;;;;;;;0.87;0.30;;;3.10;99.90;;;;;;4842858;29;20452;-73
2023/12/08 07:36:13;;;;;;;0.70;0.47;;;3.10;99.90;;;;;;4842909;29;20444;-76
2023/12/08 07:38:41;;;;;;;0.90;0.53;;;3.10;99.90;;;;;;4842105;29;20495;-75
2023/12/08 07:41:09;;;;;;;0.70;0.30;;;3.10;99.90;;;;;;4843086;29;20806;-74
2023/12/08 07:43:37;;;;;;;0.60;0.10;;;3.00;99.90;;;;;;4842723;29;20467;-74
2023/12/08 07:46:05;;;;;;;0.60;0.10;;;;;;;;;;4842520;29;20471;-73
2023/12/08 07:48:33;;;;;;;0.70;0.10;;;3.00;99.90;;;;;;4841984;29;20976;-74
2023/12/08 07:51:02;;;;;;;0.63;0.30;;;2.90;99.90;;;;;;4845384;29;20854;-73
2023/12/08 07:53:30;;;;;;;13.03;1.43;;;2.80;99.90;;;;;;4849924;29;20455;-75
2023/12/08 07:55:59;;;;;;;1.03;0.87;;;2.80;99.90;;;;;;4849817;29;20514;-74
2023/12/08 07:58:28;;;;;;;0.93;0.40;;;2.80;99.90;;;;;;4848753;29;20552;-75
2023/12/08 08:00:56;;;;;;;0.60;0.10;;;2.80;99.90;;;;;;4844084;29;20490;-74
2023/12/08 08:03:24;;;;;;;3.03;2.83;;;2.90;99.90;;;;;;4842841;29;20467;-74
2023/12/08 08:05:52;;;;;;;0.60;0.10;;;3.00;99.90;;;;;;4843456;29;20460;-74
2023/12/08 08:08:21;;;;;;;0.60;0.27;;;2.90;99.90;;;;;;4846362;29;21011;-76
2023/12/08 08:10:49;;;;;;;0.60;0.10;;;3.00;99.90;;;;;;4847621;29;20479;-75
2023/12/08 08:13:17;;;;;;;0.93;0.93;;;3.10;99.90;;;;;;4847003;29;21002;-75
2023/12/08 08:15:45;;;;;;;0.60;0.10;;;3.10;99.90;;;;;;4845982;29;20497;-75
2023/12/08 08:18:13;;;;;;;3.53;3.33;;;3.10;99.90;;;;;;4846282;29;20490;-75
2023/12/08 08:20:41;;;;;;;0.60;0.10;;;3.20;99.90;;;;;;4850909;29;20471;-74
2023/12/08 08:23:09;;;;;;;1.33;1.23;;;3.20;99.90;;;;;;4854085;29;20986;-74
2023/12/08 08:25:39;;;;;;;0.60;0.10;;;3.20;99.90;;;;;;4859411;29;20452;-73
2023/12/08 08:28:06;;;;;;;0.60;0.20;;;3.20;99.90;;;;;;4860556;29;20514;-75
2023/12/08 08:30:35;;;;;;;0.60;0.10;;;3.30;99.90;;;;;;4859520;29;20512;-74
2023/12/08 08:33:03;;;;;;;0.60;0.30;;;3.30;99.90;;;;;;4852742;29;20948;-74
2023/12/08 08:35:31;;;;;;;0.60;0.10;;;3.30;99.90;;;;;;4852461;29;20474;-75
2023/12/08 08:37:59;;;;;;;0.70;0.40;;;3.30;99.90;;;;;;4849239;29;20519;-75
2023/12/08 08:40:27;;;;;;;0.60;0.10;;;3.30;99.90;;;;;;4846913;29;20518;-77
2023/12/08 08:42:56;;;;;;;0.60;0.10;;;3.20;99.90;;;;;;4846941;29;20456;-73
2023/12/08 08:45:24;;;;;;;0.60;0.10;;;3.20;99.90;;;;;;4846333;29;20459;-76
2023/12/08 08:47:52;;;;;;;0.60;0.20;;;3.30;99.90;;;;;;4845237;29;20466;-73
2023/12/08 08:50:22;;;;;;;0.60;0.10;;;3.30;99.90;;;;;;4845468;29;20535;-75
2023/12/08 08:52:49;;;;;;;8.97;2.33;;;3.30;99.90;;;;;;4845753;29;20458;-75
2023/12/08 08:55:17;;;;;;;0.60;0.10;;;6.40;99.90;;;;;;4845582;29;20489;-75
2023/12/08 08:57:47;;;;;;;0.60;0.10;;;3.30;99.90;;;;;;4845640;29;20511;-76
2023/12/08 09:00:18;;;;;;;1.37;1.27;;;3.30;99.90;;;;;;4845801;29;20448;-76
2023/12/08 09:02:51;;;;;;;0.60;0.10;;;3.30;99.90;;;;;;4845259;29;20456;-75
2023/12/08 09:05:19;;;;;;;0.60;0.10;;;3.40;99.90;;;;;;4845539;29;20482;-75
2023/12/08 09:07:47;;;;;;;0.60;0.10;;;3.40;99.90;;;;;;4844580;29;21050;-76
2023/12/08 09:10:15;;;;;;;0.60;0.10;;;3.40;99.90;;;;;;4845561;29;20452;-76
2023/12/08 09:12:44;;;;;;;0.60;0.10;;;3.40;99.90;;;;;;4843492;29;20464;-74
2023/12/08 09:15:13;;;;;;;0.60;0.10;;;3.40;99.90;;;;;;4844498;29;20547;-74
2023/12/08 09:17:43;;;;;;;0.60;0.10;;;;;;;;;;4843354;29;20499;-75
2023/12/08 09:20:14;;;;;;;0.60;0.10;;;3.40;99.90;;;;;;4844931;29;20455;-74
2023/12/08 09:22:42;;;;;;;0.60;0.10;;;3.40;99.90;;;;;;4843948;29;20453;-74
2023/12/08 09:25:11;;;;;;;0.60;0.20;;;3.30;99.90;;;;;;4844101;29;20496;-76
2023/12/08 09:27:39;;;;;;;0.60;0.10;;;3.40;99.90;;;;;;4843957;29;20468;-75
2023/12/08 09:30:08;;;;;;;0.60;0.20;;;3.50;99.90;;;;;;4844651;29;20456;-75
2023/12/08 09:32:36;;;;;;;0.60;0.10;;;2.80;99.90;;;;;;4837005;29;20480;-76
2023/12/08 09:35:06;;;;;;;0.60;0.17;;;3.50;99.90;;;;;;4844796;29;20463;-76
2023/12/08 09:37:36;;;;;;;0.60;0.10;;;3.50;99.90;;;;;;4843907;29;20484;-76
2023/12/08 09:40:08;;;;;;;0.60;0.30;;;3.50;99.90;;;;;;4845306;29;20795;-76
2023/12/08 09:42:40;;;;;;;1.67;1.57;;;3.50;99.90;;;;;;4845518;29;20456;-75
2023/12/08 09:45:10;;;;;;;0.60;0.20;;;3.50;99.90;;;;;;4846476;29;20452;-75
2023/12/08 09:47:41;;;;;;;1.13;1.03;;;3.50;99.90;;;;;;4846380;29;20888;-75
2023/12/08 09:50:13;;;;;;;0.60;0.30;;;3.50;99.90;;;;;;4846337;29;20448;-73
2023/12/08 09:52:41;;;;;;;0.60;0.10;;;3.50;99.90;;;;;;4838511;29;20508;-75
2023/12/08 09:55:11;;;;;;;0.60;0.10;;;3.50;99.90;;;;;;4844538;29;20524;-74
2023/12/08 09:57:43;;;;;;;0.60;0.10;;;3.60;99.90;;;;;;4843959;29;20487;-75
2023/12/08 10:00:13;;;;;;;3.23;2.10;;;3.50;99.90;;;;;;4844632;29;20456;-74
2023/12/08 10:02:42;;;;;;;0.60;0.10;;;3.60;99.90;;;;;;4844367;29;20456;-75
2023/12/08 10:05:12;;;;;;;0.60;0.10;;;3.70;99.90;;;;;;4846127;29;20462;-75
2023/12/08 10:07:43;;;;;;;0.70;0.20;;;3.80;99.90;;;;;;4843999;29;20581;-75
2023/12/08 10:10:11;;;;;;;0.60;0.10;;;3.80;99.90;;;;;;4843853;29;20456;-75
2023/12/08 10:12:40;;;;;;;0.60;0.10;;;3.80;99.90;;;;;;4844127;29;20519;-77
2023/12/08 10:15:11;;;;;;;0.60;0.10;;;3.90;99.90;;;;;;4843687;29;20456;-76
2023/12/08 10:17:48;;;;;;;0.60;0.10;;;3.80;99.90;;;;;;4842753;29;20503;-77
2023/12/08 10:20:20;;;;;;;0.60;0.10;;;3.80;99.90;;;;;;4843671;29;20444;-75
2023/12/08 10:22:50;;;;;;;0.60;0.10;;;3.90;99.90;;;;;;4842622;29;20978;-76
2023/12/08 10:25:19;;;;;;;0.60;0.10;;;3.90;99.90;;;;;;4843724;29;20486;-76
2023/12/08 10:27:49;;;;;;;0.60;0.10;;;4.00;99.90;;;;;;4843052;29;20479;-77
2023/12/08 10:30:18;;;;;;;0.60;0.20;;;3.90;99.90;;;;;;4843419;29;20456;-76
2023/12/08 10:32:47;;;;;;;0.60;0.10;;;4.00;99.90;;;;;;4842973;29;20524;-78
2023/12/08 10:35:15;;;;;;;0.60;0.10;;;4.00;99.90;;;;;;4843476;29;20527;-75
2023/12/08 10:37:45;;;;;;;0.60;0.10;;;;;;;;;;4843471;29;20483;-77
2023/12/08 10:40:18;;;;;;;0.60;0.10;;;4.00;99.90;;;;;;4843130;29;20571;-77
2023/12/08 10:42:48;;;;;;;0.60;0.10;;;4.10;99.90;;;;;;4843757;29;20452;-75
2023/12/08 10:45:18;;;;;;;0.60;0.10;;;4.10;99.90;;;;;;4844311;29;20471;-77
2023/12/08 10:47:49;;;;;;;0.60;0.10;;;4.10;99.90;;;;;;4843372;29;20475;-75
2023/12/08 10:50:20;;;;;;;1.07;0.83;;;4.00;99.90;;;;;;4843131;29;20459;-74
2023/12/08 10:52:51;;;;;;;2.67;2.00;;;4.00;99.90;;;;;;4842831;29;20940;-76
2023/12/08 10:55:19;;;;;;;0.60;0.10;;;4.10;99.90;;;;;;4843435;29;20974;-75
2023/12/08 10:57:49;;;;;;;0.60;0.10;;;4.10;99.90;;;;;;4843406;29;20484;-75
2023/12/08 11:00:19;;;;;;;0.60;0.20;;;4.10;99.90;;;;;;4842052;29;21030;-75
2023/12/08 11:02:49;;;;;;;0.60;0.10;;;4.00;99.90;;;;;;4842776;29;20539;-78
2023/12/08 11:05:23;;;;;;;0.60;0.10;;;3.90;99.90;;;;;;4843379;29;20479;-75
2023/12/08 11:07:54;;;;;;;0.70;0.37;;;4.10;99.90;;;;;;4843134;29;20468;-75
2023/12/08 11:10:25;;;;;;;0.60;0.10;;;4.10;99.90;;;;;;4844312;29;20448;-76
2023/12/08 11:13:00;;;;;;;23.00;21.70;;;4.10;99.90;;;;;;4840399;29;20806;-76
2023/12/08 11:15:33;;;;;;;0.60;0.20;;;4.20;99.90;;;;;;4856632;29;20455;-77
2023/12/08 11:18:12;;;;;;;0.60;0.10;;;4.20;99.90;;;;;;4847738;29;20476;-77
2023/12/08 11:20:42;;;;;;;0.60;0.10;;;4.30;99.90;;;;;;4844460;29;20491;-74
2023/12/08 11:23:12;;;;;;;0.60;0.10;;;4.30;99.90;;;;;;4842780;29;20952;-75
2023/12/08 11:25:45;;;;;;;0.60;0.10;;;4.30;99.90;;;;;;4846424;29;20504;-75
2023/12/08 11:28:23;;;;;;;0.60;0.10;;;4.30;99.90;;;;;;4849592;29;20778;-74
2023/12/08 11:30:56;;;;;;;0.60;0.10;;;4.30;99.90;;;;;;4850074;29;20448;-74
2023/12/08 11:33:30;;;;;;;0.60;0.20;;;4.30;99.90;;;;;;4850013;29;20448;-75
2023/12/08 11:36:07;;;;;;;0.60;0.10;;;;;;;;;;4847112;29;20515;-77
2023/12/08 11:38:37;;;;;;;0.60;0.10;;;4.40;99.90;;;;;;4843592;29;20459;-74
2023/12/08 11:41:12;;;;;;;0.80;0.33;;;4.40;99.90;;;;;;4842193;29;20452;-75
2023/12/08 11:43:42;;;;;;;0.60;0.10;;;4.40;99.90;;;;;;4843683;29;20448;-76
2023/12/08 11:46:10;;;;;;;0.70;0.43;;;;;;;;;;4845215;29;20476;-75
2023/12/08 11:48:39;;;;;;;0.60;0.20;;;4.50;99.90;;;;;;4842372;29;21019;-73
2023/12/08 11:51:07;;;;;;;0.60;0.13;;;4.40;99.90;;;;;;4842322;29;20533;-73
2023/12/08 11:53:52;;;;;;;0.60;0.10;;;4.50;99.90;;;;;;4841364;29;20452;-73
2023/12/08 11:56:39;;;;;;;1.57;1.13;;;;;;;;;;4837975;29;20456;-74
2023/12/08 11:59:07;;;;;;;1.73;0.73;;;4.50;99.90;;;;;;4841811;29;20954;-75
2023/12/08 12:01:38;;;;;;;0.60;0.10;;;4.50;99.90;;;;;;4842489;29;20462;-75
2023/12/08 12:04:06;;;;;;;0.60;0.10;;;4.60;99.90;;;;;;4842165;29;20483;-74
2023/12/08 12:06:35;;;;;;;2.43;1.90;;;4.60;99.90;;;;;;4842848;29;20484;-74
2023/12/08 12:09:06;;;;;;;1.10;0.90;;;4.70;99.90;;;;;;4841776;29;20980;-73
2023/12/08 12:11:37;;;;;;;19.63;13.67;;;4.70;99.90;;;;;;4841942;29;20487;-73
2023/12/08 12:14:07;;;;;;;0.70;0.63;;;4.70;99.90;;;;;;4841771;29;20456;-74
2023/12/08 12:16:35;;;;;;;0.60;0.30;;;4.60;99.90;;;;;;4842230;29;20504;-74
2023/12/08 12:19:04;;;;;;;0.60;0.10;;;4.70;99.90;;;;;;4842282;29;20458;-74
2023/12/08 12:21:32;;;;;;;2.30;1.23;;;;;;;;;;4842116;29;20491;-75
2023/12/08 12:24:00;;;;;;;0.60;0.10;;;4.60;99.90;;;;;;4842147;29;20461;-75
2023/12/08 12:26:30;;;;;;;0.60;0.10;;;4.70;99.90;;;;;;4842441;29;20475;-73
2023/12/08 12:28:58;;;;;;;0.60;0.10;;;4.70;99.90;;;;;;4842111;29;20450;-72
2023/12/08 12:31:26;;;;;;;0.60;0.10;;;4.70;99.90;;;;;;4842081;29;20523;-73
2023/12/08 12:33:54;;;;;;;0.60;0.10;;;;;;;;;;4842053;29;20487;-73
2023/12/08 12:36:22;;;;;;;0.87;0.80;;;4.80;99.90;;;;;;4842831;29;20460;-72
2023/12/08 12:38:52;;;;;;;0.60;0.10;;;4.90;99.90;;;;;;4842372;29;20456;-72
2023/12/08 12:41:21;;;;;;;0.60;0.10;;;5.00;99.90;;;;;;4843728;29;20532;-72
2023/12/08 12:43:56;;;;;;;0.60;0.10;;;5.00;99.90;;;;;;4845063;29;20810;-74
2023/12/08 12:46:26;;;;;;;0.60;0.10;;;5.00;99.90;;;;;;4831784;29;20448;-72
2023/12/08 12:48:55;;;;;;;1.07;0.87;;;5.00;99.90;;;;;;4835768;29;20452;-72
2023/12/08 12:51:33;;;;;;;0.60;0.20;;;5.00;99.90;;;;;;4842095;29;20452;-73
2023/12/08 12:54:03;;;;;;;0.60;0.10;;;;;;;;;;4837058;29;20483;-73
2023/12/08 12:56:32;;;;;;;0.60;0.10;;;5.10;99.90;;;;;;4844387;29;20488;-73
2023/12/08 12:59:10;;;;;;;0.60;0.10;;;5.10;99.90;;;;;;4837524;29;20460;-73
2023/12/08 13:01:38;;;;;;;1.07;0.97;;;5.20;99.90;;;;;;4844506;29;20904;-73
2023/12/08 13:04:06;;;;;;;0.60;0.10;;;5.00;99.90;;;;;;4843831;29;20441;-73
2023/12/08 13:06:36;;;;;;;6.73;6.20;;;4.90;99.90;;;;;;4844133;29;20499;-73
2023/12/08 13:09:05;;;;;;;0.60;0.10;;;4.90;99.90;;;;;;4844864;29;20919;-73
2023/12/08 13:11:33;;;;;;;0.60;0.30;;;4.80;99.90;;;;;;4844212;29;20452;-73